Time;durP1;ratioP1;P1;durP2;ratioP2;P2;SDS_P1;SDS_P2;PMS_P1;PMS_P2;Temp;Humidity;BMP_temperature;BMP_pressure;BME280_temperature;BME280_humidity;BME280_pressure;Samples;Min_cycle;Max_cycle;Signal;HPM_P1;HPM_P2
2022/04/24 00:00:39;;;;;;;7.60;3.58;;;;;;;13.49;59.58;94200.16;4142799;28;20050;-54
2022/04/24 00:02:41;;;;;;;7.30;3.38;;;;;;;13.57;58.92;94195.75;4162926;28;20223;-54
2022/04/24 00:04:42;;;;;;;8.68;3.65;;;;;;;13.60;58.98;94200.66;4158741;28;20136;-54
2022/04/24 00:06:46;;;;;;;6.80;3.65;;;;;;;13.64;58.88;94202.72;4158818;28;20107;-52
2022/04/24 00:08:49;;;;;;;7.30;3.67;;;;;;;13.66;58.41;94205.19;4157552;28;20202;-55
2022/04/24 00:10:51;;;;;;;7.07;3.70;;;;;;;13.63;58.97;94200.28;4159049;28;20095;-52
2022/04/24 00:12:53;;;;;;;7.90;3.53;;;;;;;13.57;58.89;94204.47;4158825;28;20448;-55
2022/04/24 00:14:55;;;;;;;16.58;4.43;;;;;;;13.51;59.13;94200.78;4159060;28;20181;-51
2022/04/24 00:16:56;;;;;;;6.20;3.55;;;;;;;13.44;59.37;94201.72;4158756;28;20466;-54
2022/04/24 00:18:58;;;;;;;8.10;4.20;;;;;;;13.41;59.31;94197.66;4158474;28;20053;-53
2022/04/24 00:21:00;;;;;;;12.77;3.50;;;;;;;13.40;59.40;94203.09;4152945;28;20046;-54
2022/04/24 00:23:02;;;;;;;8.00;3.97;;;;;;;13.27;59.21;94206.38;4140702;28;20062;-56
2022/04/24 00:25:05;;;;;;;9.63;3.50;;;;;;;13.02;59.83;94209.38;4142276;28;20057;-55
2022/04/24 00:27:08;;;;;;;7.28;3.45;;;;;;;12.91;59.76;94205.44;4142684;28;20139;-53
2022/04/24 00:29:09;;;;;;;9.48;3.65;;;;;;;12.80;60.06;94205.06;4142559;28;20053;-54
2022/04/24 00:31:11;;;;;;;10.73;3.65;;;;;;;12.73;60.28;94209.44;4142833;28;20482;-54
2022/04/24 00:33:13;;;;;;;9.00;3.20;;;;;;;12.69;60.65;94206.38;4141818;28;20073;-53
2022/04/24 00:35:15;;;;;;;7.22;3.47;;;;;;;12.73;60.63;94210.25;4143398;28;20123;-55
2022/04/24 00:37:17;;;;;;;9.75;3.72;;;;;;;12.79;60.89;94200.84;4158989;28;20111;-53
2022/04/24 00:39:18;;;;;;;9.95;3.70;;;;;;;12.91;60.65;94208.06;4157331;28;20057;-53
2022/04/24 00:41:20;;;;;;;7.35;3.75;;;;;;;12.98;60.52;94202.88;4158673;28;20618;-52
2022/04/24 00:43:22;;;;;;;10.65;3.35;;;;;;;13.04;60.68;94203.94;4158301;28;20053;-54
2022/04/24 00:45:24;;;;;;;9.80;3.67;;;;;;;13.01;60.78;94207.75;4158808;28;20053;-54
2022/04/24 00:47:26;;;;;;;10.25;3.78;;;;;;;13.04;60.78;94206.56;4154724;28;20438;-54
2022/04/24 00:49:28;;;;;;;8.40;3.45;;;;;;;13.06;60.65;94208.00;4156979;28;20192;-54
2022/04/24 00:51:30;;;;;;;8.73;3.63;;;;;;;13.05;60.56;94203.75;4157352;28;20131;-55
2022/04/24 00:53:32;;;;;;;7.07;3.40;;;;;;;13.05;60.44;94206.38;4155122;28;20454;-52
2022/04/24 00:55:34;;;;;;;9.50;3.95;;;;;;;13.04;60.40;94212.66;4142323;28;20130;-53
2022/04/24 00:57:35;;;;;;;6.72;3.55;;;;;;;13.05;60.35;94206.38;4142324;28;20050;-54
2022/04/24 00:59:37;;;;;;;8.38;3.63;;;;;;;13.05;60.46;94206.38;4141808;28;20568;-51
2022/04/24 01:01:40;;;;;;;8.05;3.95;;;;;;;13.06;60.73;94210.66;4141603;28;20050;-51
2022/04/24 01:03:42;;;;;;;8.55;4.20;;;;;;;12.99;60.34;94209.78;4156030;28;20107;-54
2022/04/24 01:05:45;;;;;;;9.48;4.05;;;;;;;12.88;60.41;94212.84;4158282;28;20438;-52
2022/04/24 01:07:46;;;;;;;11.07;4.30;;;;;;;12.77;60.93;94218.59;4156098;28;20057;-53
2022/04/24 01:09:48;;;;;;;9.07;4.72;;;;;;;12.43;61.87;94220.81;4157868;28;20248;-51
2022/04/24 01:11:52;;;;;;;10.55;4.85;;;;;;;12.25;62.40;94221.16;4158474;28;20049;-50
2022/04/24 01:13:54;;;;;;;8.88;4.20;;;;;;;12.19;63.09;94219.25;4158214;28;20057;-55
2022/04/24 01:15:59;;;;;;;11.18;5.68;;;;;;;12.31;62.87;94222.28;4158403;28;20525;-50
2022/04/24 01:18:01;;;;;;;8.10;5.35;;;;;;;12.40;62.51;94228.25;4158251;28;20045;-54
2022/04/24 01:20:03;;;;;;;10.50;4.80;;;;;;;12.54;62.20;94227.44;4158296;28;20045;-55
2022/04/24 01:22:05;;;;;;;11.52;4.53;;;;;;;12.64;62.00;94222.69;4159074;28;20107;-52
2022/04/24 01:24:07;;;;;;;7.65;4.30;;;;;;;12.67;61.51;94232.84;4159321;28;20057;-54
2022/04/24 01:26:09;;;;;;;8.63;5.05;;;;;;;12.48;62.05;94233.41;4161321;28;20053;-51
2022/04/24 01:28:11;;;;;;;9.80;4.60;;;;;;;12.22;62.71;94231.25;4161424;28;20113;-51
2022/04/24 01:30:13;;;;;;;12.20;4.50;;;;;;;11.78;64.05;94238.00;4171544;28;20198;-53
2022/04/24 01:32:14;;;;;;;10.10;4.82;;;;;;;11.60;64.52;94234.91;4170842;28;20057;-54
2022/04/24 01:34:17;;;;;;;8.48;4.90;;;;;;;11.41;65.08;94233.56;4155944;28;20131;-55
2022/04/24 01:36:19;;;;;;;10.30;4.15;;;;;;;11.26;65.65;94229.06;4161211;28;20107;-52
2022/04/24 01:38:21;;;;;;;10.07;4.03;;;;;;;11.14;66.24;94232.25;4159969;28;20069;-51
2022/04/24 01:40:22;;;;;;;10.77;4.25;;;;;;;11.01;66.34;94241.53;4161121;28;20159;-54
2022/04/24 01:42:24;;;;;;;7.60;3.95;;;;;;;10.95;66.85;94242.22;4161079;28;20123;-54
2022/04/24 01:44:26;;;;;;;9.27;3.95;;;;;;;10.92;66.50;94241.75;4160921;28;20053;-54
2022/04/24 01:46:28;;;;;;;11.30;3.60;;;;;;;10.90;66.89;94239.28;4166177;28;20045;-53
2022/04/24 01:48:30;;;;;;;5.55;3.97;;;;;;;10.93;66.85;94246.00;4152785;28;20492;-52
2022/04/24 01:50:32;;;;;;;9.70;4.00;;;;;;;11.01;66.64;94241.53;4152213;28;20523;-55
2022/04/24 01:52:33;;;;;;;8.85;3.75;;;;;;;11.15;66.03;94239.16;4160814;28;20065;-50
2022/04/24 01:54:35;;;;;;;10.73;4.07;;;;;;;11.25;65.46;94237.94;4159337;28;20057;-54
2022/04/24 01:56:38;;;;;;;9.02;3.97;;;;;;;11.24;65.20;94241.53;4160542;28;20042;-54
2022/04/24 01:58:40;;;;;;;8.27;3.65;;;;;;;11.22;65.64;94243.50;4160723;28;20489;-53
2022/04/24 02:00:42;;;;;;;6.53;3.13;;;;;;;11.28;65.85;94242.81;4160926;28;20061;-52
2022/04/24 02:02:45;;;;;;;7.75;4.18;;;;;;;11.44;65.56;94241.91;4160324;28;20060;-48
2022/04/24 02:04:47;;;;;;;8.32;3.72;;;;;;;11.63;65.17;94240.59;4154927;28;20126;-56
2022/04/24 02:06:52;;;;;;;9.52;4.03;;;;;;;11.75;64.59;94243.63;4144375;28;20049;-53
2022/04/24 02:08:54;;;;;;;11.48;4.65;;;;;;;11.88;64.34;94251.72;4156616;28;20590;-53
2022/04/24 02:10:55;;;;;;;6.45;3.47;;;;;;;11.99;63.89;94249.69;4160907;28;20045;-53
2022/04/24 02:12:57;;;;;;;10.32;3.55;;;;;;;12.05;63.51;94246.34;4160633;28;20049;-53
2022/04/24 02:14:59;;;;;;;9.52;3.85;;;;;;;12.11;63.21;94250.88;4160875;28;20099;-54
2022/04/24 02:17:01;;;;;;;7.07;4.18;;;;;;;12.11;63.36;94253.50;4159479;28;20111;-53
2022/04/24 02:19:02;;;;;;;7.63;3.90;;;;;;;12.13;63.51;94250.69;4161257;28;20049;-52
2022/04/24 02:21:04;;;;;;;9.20;4.60;;;;;;;12.15;63.79;94246.06;4160547;28;20053;-54
2022/04/24 02:23:06;;;;;;;7.65;4.43;;;;;;;12.21;63.70;94247.97;4159263;28;20049;-54
2022/04/24 02:25:08;;;;;;;6.90;4.50;;;;;;;12.23;63.30;94252.03;4160622;28;20417;-54
2022/04/24 02:27:10;;;;;;;9.05;4.75;;;;;;;12.27;63.54;94252.50;4160656;28;20402;-54
2022/04/24 02:29:12;;;;;;;12.88;4.68;;;;;;;12.22;63.43;94255.69;4160791;28;20049;-51
2022/04/24 02:31:13;;;;;;;9.25;4.18;;;;;;;12.16;63.53;94255.59;4160470;28;20494;-54
2022/04/24 02:33:15;;;;;;;7.78;4.40;;;;;;;12.12;63.77;94256.94;4160220;28;20529;-53
2022/04/24 02:35:17;;;;;;;7.22;3.88;;;;;;;12.09;63.76;94256.31;4160407;28;20053;-50
2022/04/24 02:37:19;;;;;;;7.90;4.28;;;;;;;12.11;63.49;94256.13;4160533;28;20100;-52
2022/04/24 02:39:21;;;;;;;9.45;4.20;;;;;;;12.10;63.43;94251.84;4159289;28;20524;-52
2022/04/24 02:41:26;;;;;;;6.85;4.00;;;;;;;12.09;63.50;94258.13;4160406;28;20483;-54
2022/04/24 02:43:27;;;;;;;7.70;4.10;;;;;;;12.09;63.75;94253.69;4160384;28;20053;-55
2022/04/24 02:45:29;;;;;;;8.18;4.35;;;;;;;12.07;63.44;94252.22;4160459;28;20127;-51
2022/04/24 02:47:31;;;;;;;11.35;4.50;;;;;;;12.07;63.69;94254.84;4160357;28;20041;-53
2022/04/24 02:49:33;;;;;;;9.00;4.40;;;;;;;12.08;63.55;94259.09;4159833;28;20065;-55
2022/04/24 02:51:34;;;;;;;9.35;4.72;;;;;;;12.12;63.37;94255.13;4160275;28;20049;-54
2022/04/24 02:53:36;;;;;;;7.60;4.05;;;;;;;12.11;63.19;94253.50;4157472;28;20393;-54
2022/04/24 02:55:38;;;;;;;10.73;4.53;;;;;;;12.12;63.21;94254.31;4160118;28;20111;-55
2022/04/24 02:57:40;;;;;;;9.23;4.97;;;;;;;12.16;63.13;94256.41;4159894;28;20117;-54
2022/04/24 02:59:42;;;;;;;10.18;4.95;;;;;;;12.17;62.72;94260.63;4160390;28;20131;-54
2022/04/24 03:01:45;;;;;;;8.68;5.07;;;;;;;12.19;62.78;94269.16;4159985;28;20058;-50
2022/04/24 03:03:47;;;;;;;10.23;5.07;;;;;;;12.21;62.94;94271.59;4158864;28;20422;-52
2022/04/24 03:05:49;;;;;;;11.38;5.57;;;;;;;12.14;63.09;94268.06;4152244;28;20057;-53
2022/04/24 03:07:51;;;;;;;10.45;4.45;;;;;;;12.09;63.27;94268.63;4158281;28;20549;-50
2022/04/24 03:09:53;;;;;;;8.15;4.93;;;;;;;12.11;63.18;94271.88;4159870;28;20486;-56
2022/04/24 03:11:55;;;;;;;13.70;5.20;;;;;;;12.02;62.86;94265.06;4159500;28;20115;-53
2022/04/24 03:13:57;;;;;;;13.38;4.85;;;;;;;11.97;63.25;94270.03;4159636;28;20045;-51
2022/04/24 03:15:59;;;;;;;10.52;4.95;;;;;;;11.76;63.56;94270.66;4159831;28;20148;-53
2022/04/24 03:18:00;;;;;;;7.32;4.35;;;;;;;11.58;64.45;94268.34;4156862;28;20519;-52
2022/04/24 03:20:04;;;;;;;10.98;6.00;;;;;;;11.58;64.73;94277.03;4159665;28;20125;-54
2022/04/24 03:22:06;;;;;;;9.95;5.30;;;;;;;11.62;64.15;94277.50;4159881;28;20057;-55
2022/04/24 03:24:08;;;;;;;11.55;5.20;;;;;;;11.65;64.55;94271.91;4158698;28;20451;-52
2022/04/24 03:26:13;;;;;;;14.48;8.43;;;;;;;11.69;64.42;94273.19;4159958;28;20453;-52
2022/04/24 03:28:15;;;;;;;17.52;15.82;;;;;;;11.73;64.38;94276.28;4159897;28;20053;-54
2022/04/24 03:30:17;;;;;;;13.27;7.60;;;;;;;11.74;63.96;94280.53;4159642;28;20065;-51
2022/04/24 03:32:18;;;;;;;6.68;5.15;;;;;;;11.76;63.66;94273.28;4159689;28;20053;-51
2022/04/24 03:34:24;;;;;;;11.20;5.18;;;;;;;11.82;63.47;94286.53;4159368;28;20085;-53
2022/04/24 03:36:26;;;;;;;10.75;5.53;;;;;;;11.82;63.44;94290.97;4159861;28;20122;-52
2022/04/24 03:38:27;;;;;;;15.90;5.88;;;;;;;11.82;63.63;94290.97;4157863;28;20046;-53
2022/04/24 03:40:29;;;;;;;8.45;5.28;;;;;;;11.83;63.43;94288.16;4159459;28;20107;-54
2022/04/24 03:42:32;;;;;;;10.48;5.35;;;;;;;11.81;63.85;94290.16;4159550;28;20050;-51
2022/04/24 03:44:34;;;;;;;11.43;5.43;;;;;;;11.83;63.59;94282.09;4159046;28;20110;-52
2022/04/24 03:46:36;;;;;;;9.20;5.35;;;;;;;11.86;63.52;94281.75;4159438;28;20498;-53
2022/04/24 03:48:37;;;;;;;8.50;6.57;;;;;;;11.77;63.61;94281.00;4145925;28;20053;-56
2022/04/24 03:50:39;;;;;;;12.25;5.63;;;;;;;11.77;63.72;94283.63;4143092;28;20058;-54
2022/04/24 03:52:41;;;;;;;8.95;5.28;;;;;;;11.79;63.95;94284.25;4143083;28;20152;-55
2022/04/24 03:54:43;;;;;;;9.48;5.05;;;;;;;11.85;63.94;94286.19;4141932;28;20062;-56
2022/04/24 03:56:45;;;;;;;12.68;5.00;;;;;;;11.83;63.83;94296.03;4143279;28;20141;-53
2022/04/24 03:58:47;;;;;;;10.60;4.60;;;;;;;11.81;63.77;94290.16;4145587;28;20057;-55
2022/04/24 04:00:48;;;;;;;8.23;4.70;;;;;;;11.85;64.02;94290.59;4159174;28;20072;-54
2022/04/24 04:02:50;;;;;;;8.52;4.57;;;;;;;11.96;63.42;94287.59;4159069;28;20053;-53
2022/04/24 04:04:52;;;;;;;7.70;4.55;;;;;;;12.04;63.29;94284.88;4158767;28;20056;-51
2022/04/24 04:06:54;;;;;;;10.98;3.80;;;;;;;12.07;62.50;94288.97;4162967;28;20115;-53
2022/04/24 04:08:56;;;;;;;9.05;4.00;;;;;;;12.04;62.69;94289.31;4157871;28;20768;-57
2022/04/24 04:10:59;;;;;;;8.82;4.28;;;;;;;12.13;62.63;94293.53;4159215;28;20095;-54
2022/04/24 04:13:06;;;;;;;8.00;4.72;;;;;;;12.25;62.16;94294.69;4159107;28;20202;-52
2022/04/24 04:15:08;;;;;;;14.52;5.35;;;;;;;12.38;62.23;94291.47;4159205;28;20049;-53
2022/04/24 04:17:10;;;;;;;12.82;4.95;;;;;;;12.47;61.36;94292.19;4157606;28;20049;-53
2022/04/24 04:19:12;;;;;;;11.52;5.15;;;;;;;12.50;61.00;94289.22;4158561;28;20056;-52
2022/04/24 04:21:14;;;;;;;9.77;4.50;;;;;;;12.47;61.30;94289.56;4158956;28;20360;-53
2022/04/24 04:23:16;;;;;;;10.23;4.90;;;;;;;12.53;61.11;94294.09;4157810;28;20509;-52
2022/04/24 04:25:19;;;;;;;14.57;4.45;;;;;;;12.48;61.24;94296.47;4158910;28;20053;-53
2022/04/24 04:27:21;;;;;;;7.32;4.60;;;;;;;12.35;61.50;94301.53;4158921;28;20053;-52
2022/04/24 04:29:23;;;;;;;8.35;4.78;;;;;;;12.17;62.55;94305.28;4158988;28;20057;-52
2022/04/24 04:31:25;;;;;;;12.27;4.78;;;;;;;12.06;62.46;94311.78;4159053;28;20572;-53
2022/04/24 04:33:27;;;;;;;10.43;4.97;;;;;;;11.94;63.13;94313.22;4157078;28;20049;-52
2022/04/24 04:35:29;;;;;;;9.50;4.38;;;;;;;11.95;63.77;94311.41;4158657;28;20057;-53
2022/04/24 04:37:32;;;;;;;11.50;4.90;;;;;;;12.00;63.45;94306.41;4157284;28;20042;-54
2022/04/24 04:39:33;;;;;;;10.10;5.80;;;;;;;12.09;63.25;94308.00;4157659;28;20576;-53
2022/04/24 04:41:41;;;;;;;13.80;5.78;;;;;;;12.18;63.17;94306.94;4158622;28;20522;-53
2022/04/24 04:43:43;;;;;;;12.02;5.45;;;;;;;12.07;63.29;94325.75;4158870;28;20748;-55
2022/04/24 04:45:44;;;;;;;10.27;5.63;;;;;;;11.98;63.74;94321.53;4158400;28;20053;-54
2022/04/24 04:47:49;;;;;;;9.50;5.22;;;;;;;11.74;64.71;94325.94;4151899;28;20042;-54
2022/04/24 04:49:51;;;;;;;10.50;5.07;;;;;;;11.61;64.64;94329.16;4142644;28;20518;-52
2022/04/24 04:51:53;;;;;;;14.68;5.80;;;;;;;11.37;65.17;94327.50;4142407;28;20088;-51
2022/04/24 04:53:55;;;;;;;12.13;6.18;;;;;;;11.18;65.43;94320.88;4141282;28;20049;-51
2022/04/24 04:55:57;;;;;;;11.32;5.85;;;;;;;10.91;66.48;94323.97;4142412;28;20045;-53
2022/04/24 04:57:59;;;;;;;13.88;6.55;;;;;;;10.76;67.04;94331.72;4144781;28;20058;-56
2022/04/24 05:00:01;;;;;;;12.98;7.22;;;;;;;10.64;67.64;94331.25;4158027;28;20494;-55
2022/04/24 05:02:03;;;;;;;12.38;6.55;;;;;;;10.77;67.35;94333.34;4162135;28;20470;-52
2022/04/24 05:04:07;;;;;;;14.75;8.15;;;;;;;10.76;67.32;94329.91;4161653;28;20466;-52
2022/04/24 05:06:09;;;;;;;15.10;7.63;;;;;;;10.87;67.36;94326.13;4161093;28;20065;-53
2022/04/24 05:08:11;;;;;;;14.27;8.38;;;;;;;11.02;66.82;94332.28;4157879;28;20534;-55
2022/04/24 05:10:13;;;;;;;15.05;8.15;;;;;;;11.20;66.64;94328.56;4145571;28;20077;-53
2022/04/24 05:12:14;;;;;;;16.30;8.52;;;;;;;11.41;66.02;94331.41;4145338;28;20115;-55
2022/04/24 05:14:16;;;;;;;10.57;7.72;;;;;;;11.57;65.05;94321.81;4145308;28;20104;-53
2022/04/24 05:16:18;;;;;;;17.10;9.20;;;;;;;11.81;64.81;94334.78;4145585;28;20053;-51
2022/04/24 05:18:20;;;;;;;14.32;8.45;;;;;;;12.05;63.82;94338.22;4145143;28;20081;-53
2022/04/24 05:20:21;;;;;;;17.38;8.02;;;;;;;12.31;63.31;94334.41;4155944;28;20375;-52
2022/04/24 05:22:23;;;;;;;15.32;8.60;;;;;;;12.55;62.57;94330.72;4161491;28;20060;-55
2022/04/24 05:24:25;;;;;;;17.75;7.72;;;;;;;12.65;62.08;94334.72;4160427;28;20057;-50
2022/04/24 05:26:27;;;;;;;20.27;7.65;;;;;;;12.79;61.62;94334.88;4161624;28;20568;-51
2022/04/24 05:28:29;;;;;;;18.90;7.88;;;;;;;12.88;61.82;94337.25;4161478;28;20095;-52
2022/04/24 05:30:32;;;;;;;17.45;8.07;;;;;;;13.06;61.23;94333.44;4161781;28;20524;-55
2022/04/24 05:32:52;;;;;;;10.85;7.35;;;;;;;13.25;60.93;94329.38;4161755;28;20052;-52
2022/04/24 05:34:54;;;;;;;13.45;7.60;;;;;;;13.40;60.49;94319.69;4161960;28;20544;-55
2022/04/24 05:36:55;;;;;;;14.10;8.20;;;;;;;13.50;60.22;94328.09;4161645;28;20193;-52
2022/04/24 05:38:57;;;;;;;12.75;7.97;;;;;;;13.63;59.36;94327.41;4159940;28;20103;-50
2022/04/24 05:40:59;;;;;;;15.77;7.68;;;;;;;13.79;59.32;94326.38;4161415;28;20130;-50
2022/04/24 05:43:00;;;;;;;11.32;8.23;;;;;;;13.89;58.88;94318.16;4161216;28;20065;-52
2022/04/24 05:45:09;;;;;;;11.85;7.53;;;;;;;13.91;58.87;94318.78;4161519;28;20520;-54
2022/04/24 05:47:10;;;;;;;17.33;8.43;;;;;;;13.93;59.01;94319.41;4159944;28;20053;-51
2022/04/24 05:49:12;;;;;;;14.35;8.68;;;;;;;13.76;59.16;94321.47;4144930;28;20061;-54
2022/04/24 05:51:14;;;;;;;12.20;7.95;;;;;;;13.77;59.74;94320.47;4150663;28;20057;-54
2022/04/24 05:53:16;;;;;;;14.65;7.60;;;;;;;13.93;59.21;94322.03;4160112;28;20045;-55
2022/04/24 05:55:17;;;;;;;14.35;7.93;;;;;;;14.10;59.06;94325.22;4161260;28;20049;-54
2022/04/24 05:57:19;;;;;;;13.13;7.45;;;;;;;14.24;58.37;94324.34;4160981;28;20141;-55
2022/04/24 05:59:21;;;;;;;10.80;7.30;;;;;;;14.28;58.20;94322.13;4161111;28;20199;-54
2022/04/24 06:01:22;;;;;;;12.05;7.53;;;;;;;14.39;57.99;94320.78;4161103;28;20118;-54
2022/04/24 06:03:24;;;;;;;13.00;7.50;;;;;;;14.40;57.72;94323.25;4161153;28;20061;-55
2022/04/24 06:05:26;;;;;;;15.45;7.75;;;;;;;14.38;57.79;94329.72;4160766;28;20418;-54
2022/04/24 06:07:28;;;;;;;11.68;8.60;;;;;;;14.44;57.82;94321.84;4160053;28;20053;-52
2022/04/24 06:09:29;;;;;;;13.70;7.90;;;;;;;14.24;57.82;94324.34;4161590;28;20053;-55
2022/04/24 06:11:31;;;;;;;11.40;7.13;;;;;;;14.13;57.98;94322.19;4160478;28;20442;-54
2022/04/24 06:13:33;;;;;;;10.98;7.38;;;;;;;14.13;58.33;94309.88;4161117;28;20584;-56
2022/04/24 06:15:35;;;;;;;14.50;8.13;;;;;;;14.28;58.25;94316.84;4160938;28;20437;-54
2022/04/24 06:17:36;;;;;;;13.80;6.65;;;;;;;14.41;57.28;94313.50;4160887;28;20646;-53
2022/04/24 06:19:38;;;;;;;15.07;6.88;;;;;;;14.51;57.14;94309.53;4160789;28;20123;-52
2022/04/24 06:21:40;;;;;;;11.75;6.32;;;;;;;14.58;57.04;94314.88;4160689;28;20111;-55
2022/04/24 06:23:49;;;;;;;17.33;7.30;;;;;;;14.61;56.91;94309.22;4159459;28;20143;-52
2022/04/24 06:25:50;;;;;;;12.18;5.63;;;;;;;14.61;56.74;94314.50;4160605;28;20395;-55
2022/04/24 06:27:53;;;;;;;13.68;5.65;;;;;;;14.74;55.75;94309.31;4160738;28;20049;-53
2022/04/24 06:29:56;;;;;;;10.52;5.13;;;;;;;14.64;55.53;94300.91;4161076;28;20521;-52
2022/04/24 06:31:58;;;;;;;10.55;5.03;;;;;;;14.63;55.85;94303.78;4160984;28;20053;-52
2022/04/24 06:34:00;;;;;;;10.95;5.03;;;;;;;14.72;56.20;94306.03;4160389;28;20049;-53
2022/04/24 06:36:02;;;;;;;8.23;3.67;;;;;;;14.64;55.69;94313.28;4159407;28;20061;-52
2022/04/24 06:38:04;;;;;;;7.15;3.63;;;;;;;14.70;55.73;94312.53;4159283;28;20468;-52
2022/04/24 06:40:08;;;;;;;7.88;3.90;;;;;;;14.77;55.35;94304.66;4160736;28;20139;-53
2022/04/24 06:42:09;;;;;;;15.43;4.07;;;;;;;14.65;55.77;94304.41;4160627;28;20058;-52
2022/04/24 06:44:11;;;;;;;5.90;3.20;;;;;;;14.91;55.03;94309.00;4160670;28;20454;-53
2022/04/24 06:46:13;;;;;;;5.72;3.35;;;;;;;15.11;54.77;94309.09;4160718;28;20119;-52
2022/04/24 06:48:16;;;;;;;6.50;2.88;;;;;;;15.31;53.89;94309.97;4150026;28;20057;-52
2022/04/24 06:50:18;;;;;;;11.75;3.25;;;;;;;15.34;53.72;94303.50;4144160;28;20054;-55
2022/04/24 06:52:20;;;;;;;8.23;2.70;;;;;;;15.38;53.45;94303.91;4144158;28;20073;-53
2022/04/24 06:54:22;;;;;;;6.63;3.10;;;;;;;15.41;53.32;94301.69;4142547;28;20065;-50
2022/04/24 06:56:23;;;;;;;7.10;2.88;;;;;;;15.57;53.50;94300.50;4143850;28;20132;-55
2022/04/24 06:58:25;;;;;;;8.60;3.28;;;;;;;15.79;52.82;94295.94;4143672;28;20049;-53
2022/04/24 07:00:28;;;;;;;6.43;3.25;;;;;;;15.80;52.28;94292.25;4160264;28;20072;-53
2022/04/24 07:02:48;;;;;;;7.53;3.50;;;;;;;15.88;52.36;94289.44;4160133;28;20064;-56
2022/04/24 07:04:50;;;;;;;6.25;2.60;;;;;;;15.61;52.47;94290.34;4160274;28;20061;-56
2022/04/24 07:06:51;;;;;;;6.90;2.80;;;;;;;15.15;54.00;94294.50;4160342;28;21008;-51
2022/04/24 07:08:53;;;;;;;5.72;2.85;;;;;;;15.17;54.22;94291.66;4158258;28;20506;-52
2022/04/24 07:10:55;;;;;;;7.13;2.88;;;;;;;15.39;53.87;94289.69;4150741;28;20529;-58
2022/04/24 07:12:57;;;;;;;5.05;2.90;;;;;;;15.72;53.01;94287.16;4155097;28;20072;-52
2022/04/24 07:14:58;;;;;;;8.68;2.75;;;;;;;15.96;52.40;94286.59;4159668;28;20049;-53
2022/04/24 07:17:00;;;;;;;7.75;2.95;;;;;;;16.04;51.88;94285.56;4159922;28;20111;-54
2022/04/24 07:19:02;;;;;;;9.07;2.90;;;;;;;15.99;51.85;94281.94;4159317;28;20076;-53
2022/04/24 07:21:06;;;;;;;6.93;3.35;;;;;;;15.75;52.45;94284.13;4153321;28;20061;-52
2022/04/24 07:23:08;;;;;;;6.28;3.00;;;;;;;15.80;52.74;94273.75;4142267;28;20104;-54
2022/04/24 07:25:10;;;;;;;9.48;3.05;;;;;;;15.91;51.91;94278.44;4143378;28;20120;-49
2022/04/24 07:27:12;;;;;;;7.22;3.13;;;;;;;15.71;52.61;94273.16;4143289;28;20099;-54
2022/04/24 07:29:14;;;;;;;10.43;3.45;;;;;;;15.67;53.04;94273.72;4143712;28;20046;-53
2022/04/24 07:31:19;;;;;;;6.13;3.42;;;;;;;15.97;52.06;94274.19;4143599;28;20050;-53
2022/04/24 07:33:22;;;;;;;8.60;3.05;;;;;;;16.17;51.22;94266.25;4149137;28;20042;-53
2022/04/24 07:35:28;;;;;;;6.57;3.67;;;;;;;16.28;50.95;94270.13;4159621;28;20068;-52
2022/04/24 07:37:32;;;;;;;6.95;3.58;;;;;;;16.40;50.97;94268.47;4159675;28;20045;-55
2022/04/24 07:39:34;;;;;;;9.35;3.78;;;;;;;16.64;50.79;94261.72;4156628;28;20097;-52
2022/04/24 07:41:36;;;;;;;5.82;3.00;;;;;;;16.71;49.93;94267.00;4159755;28;20053;-51
2022/04/24 07:43:38;;;;;;;10.77;3.78;;;;;;;16.84;49.53;94266.19;4159531;28;20103;-51
2022/04/24 07:45:43;;;;;;;6.68;3.83;;;;;;;16.76;49.63;94268.00;4159568;28;20072;-52
2022/04/24 07:47:48;;;;;;;10.73;3.17;;;;;;;16.90;49.45;94262.72;4153115;28;20057;-53
2022/04/24 07:49:49;;;;;;;9.20;3.80;;;;;;;16.96;49.42;94267.16;4143080;28;20050;-54
2022/04/24 07:51:51;;;;;;;11.02;3.53;;;;;;;16.93;49.36;94267.59;4146859;28;20054;-55
2022/04/24 07:53:53;;;;;;;5.75;2.63;;;;;;;17.08;48.33;94265.50;4157940;28;20135;-53
2022/04/24 07:55:54;;;;;;;9.48;3.15;;;;;;;17.34;48.02;94263.75;4159417;28;20057;-53
2022/04/24 07:57:57;;;;;;;8.70;2.72;;;;;;;17.44;47.80;94258.00;4159307;28;20065;-53
2022/04/24 07:59:59;;;;;;;8.13;4.00;;;;;;;17.54;47.73;94255.72;4159475;28;20046;-53
2022/04/24 08:02:01;;;;;;;10.18;3.42;;;;;;;17.63;47.46;94253.63;4158307;28;20120;-55
2022/04/24 08:04:03;;;;;;;7.10;3.63;;;;;;;17.73;47.46;94249.47;4158963;28;20212;-52
2022/04/24 08:06:05;;;;;;;4.70;3.40;;;;;;;17.85;47.35;94249.59;4157872;28;20060;-51
2022/04/24 08:08:09;;;;;;;7.35;3.58;;;;;;;17.84;46.59;94248.00;4157730;28;20060;-54
2022/04/24 08:10:10;;;;;;;;;;;;;;;18.02;46.66;94247.25;4158198;28;20138;-56
2022/04/24 08:12:12;;;;;;;9.00;3.22;;;;;;;18.04;45.82;94242.53;4158542;28;19925;-53
2022/04/24 08:14:14;;;;;;;7.28;2.85;;;;;;;18.10;45.70;94235.56;4159245;28;20045;-53
2022/04/24 08:16:16;;;;;;;9.73;2.83;;;;;;;18.00;45.98;94230.75;4159243;28;20152;-56
2022/04/24 08:18:19;;;;;;;8.23;2.80;;;;;;;18.18;46.37;94230.00;4158543;28;20137;-50
2022/04/24 08:20:20;;;;;;;4.65;2.28;;;;;;;18.46;45.82;94231.38;4158543;28;20049;-52
2022/04/24 08:22:22;;;;;;;8.00;2.72;;;;;;;18.69;44.53;94223.59;4142609;28;20074;-53
2022/04/24 08:24:24;;;;;;;10.15;2.38;;;;;;;18.75;43.50;94216.56;4141361;28;20053;-50
2022/04/24 08:26:26;;;;;;;7.60;2.30;;;;;;;18.63;43.62;94213.88;4142767;28;20058;-50
2022/04/24 08:28:28;;;;;;;6.90;2.72;;;;;;;18.34;44.31;94221.47;4142689;28;20208;-54
2022/04/24 08:30:29;;;;;;;3.42;2.20;;;;;;;18.42;44.76;94221.19;4142612;28;20487;-52
2022/04/24 08:32:31;;;;;;;5.28;2.33;;;;;;;18.38;44.62;94213.91;4142765;28;20148;-52
2022/04/24 08:34:33;;;;;;;6.03;2.38;;;;;;;18.32;44.70;94220.06;4142281;28;20092;-54
2022/04/24 08:36:35;;;;;;;7.15;2.30;;;;;;;18.27;44.70;94212.78;4142642;28;20050;-53
2022/04/24 08:38:36;;;;;;;4.72;2.17;;;;;;;18.35;44.56;94209.06;4153576;28;20111;-55
2022/04/24 08:40:38;;;;;;;7.45;2.50;;;;;;;18.32;44.75;94209.47;4158922;28;20053;-51
2022/04/24 08:42:41;;;;;;;7.53;2.65;;;;;;;18.34;44.77;94208.22;4158509;28;20061;-55
2022/04/24 08:44:43;;;;;;;6.13;2.30;;;;;;;18.46;45.01;94205.66;4157331;28;20052;-53
2022/04/24 08:46:49;;;;;;;6.82;2.47;;;;;;;18.79;44.58;94213.28;4158856;28;20368;-53
2022/04/24 08:48:50;;;;;;;4.20;2.38;;;;;;;19.06;44.11;94201.53;4143302;28;20537;-49
2022/04/24 08:50:55;;;;;;;9.35;2.60;;;;;;;19.31;43.66;94202.22;4142190;28;20065;-53
2022/04/24 08:52:59;;;;;;;5.57;2.38;;;;;;;19.25;43.30;94203.13;4155540;28;20151;-52
2022/04/24 08:55:03;;;;;;;5.07;2.47;;;;;;;19.23;43.47;94205.22;4142472;28;20053;-53
2022/04/24 08:57:04;;;;;;;8.57;2.63;;;;;;;19.16;43.38;94199.97;4142545;28;20469;-54
2022/04/24 08:59:06;;;;;;;5.43;2.33;;;;;;;19.14;43.13;94191.41;4147351;28;20054;-53
2022/04/24 09:01:08;;;;;;;6.93;2.65;;;;;;;18.99;43.92;94185.69;4158661;28;20050;-53
2022/04/24 09:03:10;;;;;;;4.95;2.40;;;;;;;19.21;43.30;94192.16;4156934;28;20300;-50
2022/04/24 09:05:13;;;;;;;6.82;2.92;;;;;;;19.46;43.33;94193.06;4158319;28;20053;-53
2022/04/24 09:07:18;;;;;;;8.75;2.80;;;;;;;19.74;42.76;94192.47;4154476;28;20041;-50
2022/04/24 09:09:19;;;;;;;9.05;2.63;;;;;;;20.05;42.13;94186.06;4157400;28;20045;-55
2022/04/24 09:11:22;;;;;;;7.88;2.50;;;;;;;20.33;41.57;94189.88;4154202;28;20103;-54
2022/04/24 09:14:14;;;;;;;4.85;2.13;;;;;;;20.58;40.84;94181.66;4156017;28;20052;-53
2022/04/24 09:16:00;;;;;;;3.83;1.98;;;;;;;20.44;40.57;94179.22;4158352;28;20144;-51
2022/04/24 09:18:02;;;;;;;5.05;1.98;;;;;;;20.57;40.81;94177.34;4158232;28;20436;-54
2022/04/24 09:20:16;;;;;;;6.40;1.80;;;;;;;20.29;39.80;94176.22;4158203;28;20512;-54
2022/04/24 09:22:18;;;;;;;4.80;1.60;;;;;;;20.38;39.90;94174.00;4158325;28;20057;-52
2022/04/24 09:24:20;;;;;;;5.75;1.70;;;;;;;20.49;39.24;94169.72;4157343;28;20112;-52
2022/04/24 09:26:22;;;;;;;9.30;2.00;;;;;;;20.39;39.46;94172.97;4158834;28;20049;-48
2022/04/24 09:28:44;;;;;;;7.22;1.75;;;;;;;20.11;40.41;94161.19;4158630;28;20118;-51
2022/04/24 09:30:49;;;;;;;4.57;1.70;;;;;;;20.16;40.68;94166.63;4158438;28;20057;-52
2022/04/24 09:32:54;;;;;;;3.30;1.42;;;;;;;20.41;39.27;94163.72;4158410;28;20107;-52